Dixon, NE (68732)

20:36 CST le 29 janvier 2015 (GMT -0600)
Destiny's WeatherZone | Change Station
CLOSE
Current Station
Stations météorologiques personnelles
Location: Dixon, NE
Altitude: 1450 ft
Stations météo à proximité

Alt. 1450 ft 42.42 °N, 97.00 °W | Updated 2 minutes ago

Ciel dégagé
Ciel dégagé
24.6 ° F
Paraît 25 ° F
N
2.0
Vent Variable Vent de NNO
Gusts 4.0 mph

Aujourd'hui
Haut(e) -- | Bas -- ° F
--% Risque de précip.
Hier
Haut(e) -- | Bas -- ° F
Precip. -- pouce
7:44 AM 5:37 PM
Lune gibbeuse croissante, 79% visible
Pression 30.53 pouce
Visibilité 10.0 Miles terrestres
Nuages Ciel dégagé
Refroidissement éolien 25 ° F
Point de rosée 21 ° F
Humidité 86%
Précipitations 0.11 pouce
Profondeur de la couche neigeuse Non disponible.
UV 0 sur 12
Pollen .10 sur 12
Qualité de l'air Non disponible.
Flu Activity Non disponible.
METAR KLCG 300215Z AUTO 31004KT 10SM CLR M05/M07 A3053 RMK AO2 T10501068

More Conditions Fewer Conditions

Pression 30.53 pouce
Visibilité 10.0 Miles terrestres
Nuages Ciel dégagé
Refroidissement éolien 25 ° F
Point de rosée 21 ° F
Humidité 86%
Précipitations 0.11 pouce
Profondeur de la couche neigeuse Non disponible.
UV 0 sur 12
Pollen .10 sur 12
Qualité de l'air Non disponible.
Flu Activity Non disponible.
METAR KLCG 300215Z AUTO 31004KT 10SM CLR M05/M07 A3053 RMK AO2 T10501068

More Conditions Fewer Conditions

10-Day Weather Forecast

Almanac

Astronomie

Jan. 29, 2015 Lever Coucher
Temps réel
Crépuscule civil
Crépuscule nautique
Crépuscule astronomique
Lune
Durée de lumière visible
Longueur du jour
Tomorrow will be .
, % of the Moon is Illuminated

Extrêmes aujourd'hui

State Highs State Lows

Community

WunderPhotos

Upload Photos

1,791,695 Photos téléchargées !

WunderBlogs® & News

Nearby

Qualité de l'air

  Qualité de l'air Indice de la qualité de l'air Polluant
Not available.

Épaisseur de neige

Station Depth Altitude

Activité sismique

Ville Distance Mag. Time & Date
Minimum magnitude displayed is 2.5.

Températures des eaux côtières

Lieu Température

Stations météo à proximité